Pagrindinis puslapis
METAR-TAF:

METAR-TAF

Oro uostai :

Kristianstadas, Švedija

platuma: 55-55N, ilguma: 014-05E, Aukštis: 23 m

Dabartinis oras

Ataskaita buvo paskelbta 31 minutes, ne 12:50 UTC
Vėjas 5 kt iš Šiaurės su gūsio iki 18 kt, svyruoja nuo Vakarų/Šiaurės Vakarų ir Rytų
Temperatūra 25°C
Drėgmė 30%
Slėgis 1025 hPa
Matomumas 10 km arba daugiau
nėra debesų žemiau 1500 m ir nėra kamuolinių lietaus debesų

METAR: ESMK 011250Z 36005G18KT 290V080 CAVOK 25/06 Q1025

Laikas: 15:21 (13:21 UTC)

Prognozė

Ataskaita buvo paskelbta 2 valandos ir 18 minutes, ne 11:03 UTC
Prognozė galioja nuo 01 metu 12 UTC su 01 metu 15 UTC
Vėjas 5 kt iš Šiaurės
Matomumas 10 km arba daugiau
nėra debesų žemiau 1500 m ir nėra kamuolinių lietaus debesų

TAF: ESMK 011103Z 0112/0115 35005KT CAVOK

Orai ataskaitas ir orų prognozės (METAR, TAF).

turimą stotys yra geltonos ir raudonos taškus žemėlapyje.

Perkelti pele per norėdami pamatyti stoties vardą.

Tada spustelėkite, norėdami matyti oro stebėjimo ir prognozės.

Norėdami pakeisti žemėlapį: spustelėkite ant žalios mygtukų su juodo kryžiaus žemyn,; žalią mygtuką su brūkšneliu, jei norite nutolinti; arba žalių rodyklių gretimoms žemėlapius.


METAR-TAF: